createdAt,value
2022-08-02T00:01:02.216Z,99.90
2022-08-02T00:03:29.210Z,99.90
2022-08-02T00:06:00.113Z,99.90
2022-08-02T00:08:27.087Z,99.90
2022-08-02T00:10:54.158Z,99.90
2022-08-02T00:13:25.895Z,99.90
2022-08-02T00:15:52.825Z,99.90
2022-08-02T00:18:19.816Z,99.90
2022-08-02T00:20:53.750Z,99.90
2022-08-02T00:23:20.779Z,99.90
2022-08-02T00:25:54.792Z,99.90
2022-08-02T00:28:27.542Z,99.90
2022-08-02T00:30:55.967Z,99.90
2022-08-02T00:34:26.908Z,99.90
2022-08-02T00:36:10.391Z,99.90
2022-08-02T00:38:37.404Z,99.90
2022-08-02T00:41:04.374Z,99.90
2022-08-02T00:43:31.992Z,99.90
2022-08-02T00:46:03.156Z,99.90
2022-08-02T00:48:30.936Z,99.90
2022-08-02T00:51:01.938Z,99.90
2022-08-02T00:53:29.110Z,99.90
2022-08-02T00:56:04.962Z,99.90
2022-08-02T00:58:34.674Z,99.90
2022-08-02T01:01:02.212Z,99.90
2022-08-02T01:03:32.414Z,99.90
2022-08-02T01:06:16.920Z,99.90
2022-08-02T01:08:46.147Z,99.90
2022-08-02T01:11:13.409Z,99.90
2022-08-02T01:13:40.428Z,99.90
2022-08-02T01:16:26.388Z,99.90
2022-08-02T01:19:35.031Z,99.90
2022-08-02T01:22:59.477Z,99.90
2022-08-02T01:25:52.182Z,99.90
2022-08-02T01:28:50.804Z,99.90
2022-08-02T01:31:38.884Z,99.90
2022-08-02T01:34:41.125Z,99.90
2022-08-02T01:37:19.041Z,99.90
2022-08-02T01:39:55.814Z,99.90
2022-08-02T01:42:36.289Z,99.90
2022-08-02T01:45:07.072Z,99.90
2022-08-02T01:47:40.309Z,99.90
2022-08-02T01:50:14.157Z,99.90
2022-08-02T01:52:53.573Z,99.90
2022-08-02T01:55:33.476Z,99.90
2022-08-02T01:58:19.663Z,99.90
2022-08-02T02:00:48.805Z,99.90
2022-08-02T02:03:25.166Z,99.90
2022-08-02T02:05:57.356Z,99.90
2022-08-02T02:08:34.051Z,99.90
2022-08-02T02:12:10.971Z,99.90
2022-08-02T02:13:50.668Z,99.90
2022-08-02T02:16:25.555Z,99.90
2022-08-02T02:18:55.927Z,99.90
2022-08-02T02:21:22.972Z,99.90
2022-08-02T02:23:50.935Z,99.90
2022-08-02T02:26:31.310Z,99.90
2022-08-02T02:29:08.925Z,99.90
2022-08-02T02:31:41.143Z,99.90
2022-08-02T02:34:30.645Z,99.90
2022-08-02T02:37:04.866Z,99.90
2022-08-02T02:39:37.665Z,99.90
2022-08-02T02:42:14.043Z,99.90
2022-08-02T02:44:42.805Z,99.90
2022-08-02T02:47:11.113Z,99.90
2022-08-02T02:49:40.057Z,99.90
2022-08-02T02:52:08.150Z,99.90
2022-08-02T02:54:38.092Z,99.90
2022-08-02T02:57:12.692Z,99.90
2022-08-02T02:59:43.025Z,99.90
2022-08-02T03:02:21.614Z,99.90
2022-08-02T03:04:55.794Z,99.90
2022-08-02T03:07:26.127Z,99.90
2022-08-02T03:09:55.534Z,99.90
2022-08-02T03:12:31.801Z,99.90
2022-08-02T03:15:09.425Z,99.90
2022-08-02T03:17:44.230Z,99.90
2022-08-02T03:20:22.783Z,99.90
2022-08-02T03:22:51.647Z,99.90
2022-08-02T03:25:20.938Z,99.90
2022-08-02T03:27:56.588Z,99.90
2022-08-02T03:30:28.518Z,99.90
2022-08-02T03:32:58.470Z,99.90
2022-08-02T03:35:25.681Z,99.90
2022-08-02T03:38:20.588Z,99.90
2022-08-02T03:40:49.568Z,99.90
2022-08-02T03:43:21.367Z,99.90
2022-08-02T03:45:52.270Z,99.90
2022-08-02T03:48:34.303Z,99.90
2022-08-02T03:51:07.012Z,99.90
2022-08-02T03:53:39.076Z,99.90
2022-08-02T03:56:20.058Z,99.90
2022-08-02T03:59:10.487Z,99.90
2022-08-02T04:01:40.229Z,99.90
2022-08-02T04:04:16.468Z,99.90
2022-08-02T04:06:46.616Z,99.90
2022-08-02T04:09:26.716Z,99.90
2022-08-02T04:12:02.082Z,99.90
2022-08-02T04:14:36.113Z,99.90
2022-08-02T04:17:09.891Z,99.90
2022-08-02T04:19:50.039Z,99.90
2022-08-02T04:22:29.067Z,99.90
2022-08-02T04:25:04.259Z,99.90
2022-08-02T04:28:15.299Z,99.90
2022-08-02T04:30:36.869Z,99.90
2022-08-02T04:33:18.771Z,99.90
2022-08-02T04:35:49.322Z,99.90
2022-08-02T04:38:51.817Z,99.90
2022-08-02T04:41:21.239Z,99.90
2022-08-02T04:43:59.077Z,99.90
2022-08-02T04:46:31.874Z,99.90
2022-08-02T04:49:14.762Z,99.90
2022-08-02T04:51:45.956Z,99.90
2022-08-02T04:54:20.476Z,99.90
2022-08-02T04:56:55.301Z,99.90
2022-08-02T04:59:25.115Z,99.90
2022-08-02T05:01:55.246Z,99.90
2022-08-02T05:04:23.684Z,99.90
2022-08-02T05:07:08.389Z,99.90
2022-08-02T05:12:28.021Z,99.90
2022-08-02T05:15:13.120Z,99.90
2022-08-02T05:17:48.713Z,99.90
2022-08-02T05:20:27.962Z,99.90
2022-08-02T05:23:04.525Z,99.90
2022-08-02T05:25:37.192Z,99.90
2022-08-02T05:28:11.397Z,99.90
2022-08-02T05:30:42.514Z,99.90
2022-08-02T05:33:28.230Z,99.90
2022-08-02T05:36:00.274Z,99.90
2022-08-02T05:38:37.054Z,99.90
2022-08-02T05:41:05.725Z,99.90
2022-08-02T05:43:36.899Z,99.90
2022-08-02T05:46:16.804Z,99.90
2022-08-02T05:48:54.670Z,99.90
2022-08-02T05:52:11.866Z,99.90
2022-08-02T05:55:07.401Z,99.90
2022-08-02T05:57:56.088Z,99.90
2022-08-02T06:00:46.910Z,99.90
2022-08-02T06:03:37.151Z,99.90
2022-08-02T06:06:20.674Z,99.90
2022-08-02T06:08:58.478Z,99.90
2022-08-02T06:12:01.524Z,99.90
2022-08-02T06:14:43.813Z,99.90
2022-08-02T06:17:21.517Z,99.90
2022-08-02T06:19:59.106Z,99.90
2022-08-02T06:22:37.955Z,99.90
2022-08-02T06:25:06.160Z,99.90
2022-08-02T06:27:37.895Z,99.90
2022-08-02T06:30:19.117Z,99.90
2022-08-02T06:32:57.489Z,99.90
2022-08-02T06:35:59.148Z,99.90
2022-08-02T06:38:37.699Z,99.90
2022-08-02T06:41:14.589Z,99.90
2022-08-02T06:44:25.296Z,99.90
2022-08-02T06:47:10.502Z,99.90
2022-08-02T06:49:52.223Z,99.90
2022-08-02T06:52:31.260Z,99.90
2022-08-02T06:55:01.139Z,99.90
2022-08-02T06:57:32.193Z,99.90
2022-08-02T07:00:05.914Z,99.90
2022-08-02T07:02:35.964Z,99.90
2022-08-02T07:05:10.602Z,99.90
2022-08-02T07:07:48.651Z,99.90
2022-08-02T07:10:35.473Z,99.90
2022-08-02T07:13:09.630Z,99.90
2022-08-02T07:15:49.206Z,99.90
2022-08-02T07:18:20.156Z,99.90
2022-08-02T07:20:52.315Z,99.90
2022-08-02T07:23:22.292Z,99.90
2022-08-02T07:26:01.773Z,99.90
2022-08-02T07:28:31.994Z,99.90
2022-08-02T07:31:07.716Z,99.90
2022-08-02T07:33:39.675Z,99.90
2022-08-02T07:36:16.884Z,99.90
2022-08-02T07:41:36.543Z,99.90
2022-08-02T07:44:03.653Z,99.60
2022-08-02T07:46:40.277Z,98.70
2022-08-02T07:49:07.228Z,98.50
2022-08-02T07:51:44.278Z,98.20
2022-08-02T07:54:17.910Z,97.50
2022-08-02T07:56:58.394Z,96.80
2022-08-02T07:59:31.267Z,95.50
2022-08-02T08:02:11.608Z,94.80
2022-08-02T08:04:48.036Z,94.20
2022-08-02T08:07:22.662Z,93.50
2022-08-02T08:10:01.264Z,91.90
2022-08-02T08:12:32.708Z,91.80
2022-08-02T08:15:10.852Z,91.30
2022-08-02T08:17:44.058Z,89.70
2022-08-02T08:20:20.343Z,88.40
2022-08-02T08:22:56.340Z,86.70
2022-08-02T08:25:31.410Z,85.10
2022-08-02T08:28:24.250Z,82.80
2022-08-02T08:30:54.244Z,82.30
2022-08-02T08:33:28.173Z,82.40
2022-08-02T08:36:02.545Z,80.80
2022-08-02T08:38:37.021Z,78.00
2022-08-02T08:41:12.831Z,78.10
2022-08-02T08:43:53.245Z,77.80
2022-08-02T08:46:30.581Z,76.70
2022-08-02T08:49:06.803Z,76.60
2022-08-02T08:51:44.509Z,74.80
2022-08-02T08:54:20.239Z,75.00
2022-08-02T08:56:54.805Z,74.30
2022-08-02T08:59:32.473Z,74.80
2022-08-02T09:02:23.664Z,74.40
2022-08-02T09:05:04.277Z,73.10
2022-08-02T09:07:33.781Z,73.90
2022-08-02T09:10:04.465Z,72.80
2022-08-02T09:12:39.953Z,72.20
2022-08-02T09:15:15.603Z,71.70
2022-08-02T09:17:55.732Z,71.40
2022-08-02T09:20:30.878Z,70.50
2022-08-02T09:23:16.029Z,70.40
2022-08-02T09:25:59.036Z,70.20
2022-08-02T09:28:38.477Z,68.00
2022-08-02T09:31:10.326Z,67.50
2022-08-02T09:33:46.240Z,66.90
2022-08-02T09:36:18.979Z,67.30
2022-08-02T09:39:07.125Z,67.70
2022-08-02T09:41:43.273Z,67.80
2022-08-02T09:44:21.987Z,68.60
2022-08-02T09:46:48.827Z,69.60
2022-08-02T09:49:29.306Z,69.00
2022-08-02T09:52:05.658Z,67.20
2022-08-02T09:54:47.394Z,66.80
2022-08-02T09:57:28.251Z,67.00
2022-08-02T09:59:59.640Z,66.90
2022-08-02T10:02:33.626Z,66.60
2022-08-02T10:05:04.003Z,67.50
2022-08-02T10:07:42.887Z,67.60
2022-08-02T10:10:19.809Z,67.00
2022-08-02T10:12:52.933Z,66.00
2022-08-02T10:15:27.493Z,67.20
2022-08-02T10:17:58.490Z,65.90
2022-08-02T10:20:30.561Z,64.30
2022-08-02T10:23:03.235Z,65.70
2022-08-02T10:25:38.861Z,65.90
2022-08-02T10:28:15.073Z,66.60
2022-08-02T10:30:55.802Z,66.50
2022-08-02T10:33:27.003Z,67.30
2022-08-02T10:36:04.577Z,67.60
2022-08-02T10:38:38.788Z,66.70
2022-08-02T10:41:10.817Z,65.00
2022-08-02T10:43:49.044Z,66.10
2022-08-02T10:46:27.706Z,66.40
2022-08-02T10:49:39.213Z,66.20
2022-08-02T10:52:26.731Z,65.50
2022-08-02T10:55:01.604Z,65.10
2022-08-02T10:57:38.402Z,65.20
2022-08-02T11:00:30.268Z,64.50
2022-08-02T11:03:03.782Z,64.10
2022-08-02T11:05:48.173Z,63.40
2022-08-02T11:08:42.923Z,63.10
2022-08-02T11:11:54.109Z,63.40
2022-08-02T11:14:22.023Z,62.80
2022-08-02T11:16:59.842Z,61.10
2022-08-02T11:19:27.816Z,60.50
2022-08-02T11:22:25.933Z,60.80
2022-08-02T11:25:14.573Z,60.10
2022-08-02T11:27:56.013Z,59.40
2022-08-02T11:30:26.757Z,59.70
2022-08-02T11:33:04.906Z,58.70
2022-08-02T11:36:08.911Z,58.90
2022-08-02T11:38:38.603Z,59.30
2022-08-02T11:41:46.498Z,58.80
2022-08-02T11:44:13.086Z,58.90
2022-08-02T11:46:43.057Z,59.80
2022-08-02T11:49:21.877Z,60.20
2022-08-02T11:52:15.550Z,59.70
2022-08-02T11:54:49.160Z,60.90
2022-08-02T11:58:04.809Z,61.20
2022-08-02T12:00:30.876Z,61.70
2022-08-02T12:03:07.394Z,61.40
2022-08-02T12:06:04.892Z,61.70
2022-08-02T12:08:26.542Z,61.50
2022-08-02T12:11:00.535Z,62.20
2022-08-02T12:13:27.577Z,61.70
2022-08-02T12:16:20.731Z,62.00
2022-08-02T12:19:40.347Z,61.80
2022-08-02T12:22:24.230Z,62.20
2022-08-02T12:24:58.371Z,64.00
2022-08-02T12:27:47.665Z,63.70
2022-08-02T12:30:27.822Z,64.10
2022-08-02T12:33:13.033Z,64.60
2022-08-02T12:35:44.443Z,63.30
2022-08-02T12:38:22.131Z,63.70
2022-08-02T12:40:52.684Z,63.90
2022-08-02T12:43:27.521Z,64.40
2022-08-02T12:46:06.336Z,64.70
2022-08-02T12:48:56.795Z,64.00
2022-08-02T12:51:55.697Z,64.30
2022-08-02T12:54:50.513Z,64.50
2022-08-02T12:57:25.981Z,63.70
2022-08-02T13:00:02.583Z,64.00
2022-08-02T13:02:44.894Z,64.10
2022-08-02T13:05:22.456Z,64.70
2022-08-02T13:07:54.018Z,64.60
2022-08-02T13:10:27.547Z,65.10
2022-08-02T13:12:58.753Z,65.30
2022-08-02T13:15:50.325Z,65.60
2022-08-02T13:18:24.783Z,65.90
2022-08-02T13:21:03.494Z,66.20
2022-08-02T13:23:54.105Z,65.30
2022-08-02T13:26:31.328Z,65.70
2022-08-02T13:29:03.293Z,65.40
2022-08-02T13:31:38.163Z,65.00
2022-08-02T13:34:11.656Z,64.80
2022-08-02T13:36:46.934Z,63.50
2022-08-02T13:39:19.545Z,64.30
2022-08-02T13:41:49.834Z,64.00
2022-08-02T13:44:19.666Z,64.10
2022-08-02T13:46:54.466Z,64.00
2022-08-02T13:49:51.162Z,64.60
2022-08-02T13:52:19.143Z,63.80
2022-08-02T13:54:48.674Z,63.90
2022-08-02T13:57:18.071Z,63.70
2022-08-02T13:59:55.798Z,63.70
2022-08-02T14:02:30.860Z,64.20
2022-08-02T14:05:15.553Z,64.20
2022-08-02T14:07:45.297Z,63.80
2022-08-02T14:10:30.491Z,64.20
2022-08-02T14:13:03.236Z,65.00
2022-08-02T14:15:51.329Z,64.50
2022-08-02T14:18:18.419Z,63.60
2022-08-02T14:20:45.658Z,64.10
2022-08-02T14:23:15.681Z,64.00
2022-08-02T14:25:44.914Z,64.20
2022-08-02T14:28:20.137Z,65.30
2022-08-02T14:30:58.485Z,64.60
2022-08-02T14:33:26.422Z,64.40
2022-08-02T14:35:53.446Z,64.60
2022-08-02T14:38:39.270Z,64.40
2022-08-02T14:41:16.619Z,65.00
2022-08-02T14:44:05.213Z,64.20
2022-08-02T14:46:41.354Z,64.90
2022-08-02T14:49:26.903Z,65.30
2022-08-02T14:52:08.122Z,66.80
2022-08-02T14:54:48.678Z,65.20
2022-08-02T14:57:24.464Z,65.20
2022-08-02T14:59:57.235Z,65.70
2022-08-02T15:02:30.289Z,65.80
2022-08-02T15:05:01.828Z,65.70
2022-08-02T15:07:37.089Z,66.10
2022-08-02T15:10:21.766Z,65.60
2022-08-02T15:12:55.962Z,66.50
2022-08-02T15:15:29.967Z,66.50
2022-08-02T15:18:00.197Z,66.70
2022-08-02T15:20:38.633Z,66.10
2022-08-02T15:23:17.436Z,66.80
2022-08-02T15:26:17.293Z,66.60
2022-08-02T15:28:57.179Z,67.30
2022-08-02T15:31:33.372Z,67.60
2022-08-02T15:34:05.584Z,67.80
2022-08-02T15:36:38.288Z,67.70
2022-08-02T15:39:08.230Z,67.40
2022-08-02T15:41:41.084Z,67.50
2022-08-02T15:44:19.439Z,67.70
2022-08-02T15:46:56.067Z,67.70
2022-08-02T15:49:41.602Z,67.90
2022-08-02T15:52:09.437Z,68.20
2022-08-02T15:54:38.572Z,68.20
2022-08-02T15:57:11.080Z,68.80
2022-08-02T15:59:46.928Z,68.90
2022-08-02T16:02:21.103Z,68.80
2022-08-02T16:05:13.941Z,69.30
2022-08-02T16:07:41.429Z,69.00
2022-08-02T16:10:14.048Z,69.30
2022-08-02T16:12:46.974Z,69.00
2022-08-02T16:15:19.596Z,69.30
2022-08-02T16:17:54.864Z,69.10
2022-08-02T16:20:26.227Z,68.80
2022-08-02T16:22:56.200Z,69.30
2022-08-02T16:25:37.653Z,69.50
2022-08-02T16:28:09.058Z,69.20
2022-08-02T16:30:59.287Z,69.80
2022-08-02T16:33:36.182Z,69.60
2022-08-02T16:36:03.569Z,69.70
2022-08-02T16:38:35.630Z,69.50
2022-08-02T16:41:06.808Z,69.90
2022-08-02T16:43:44.985Z,70.50
2022-08-02T16:46:23.905Z,71.10
2022-08-02T16:48:52.827Z,70.50
2022-08-02T16:51:23.966Z,70.20
2022-08-02T16:54:08.355Z,70.80
2022-08-02T16:56:38.364Z,70.30
2022-08-02T16:59:21.415Z,70.40
2022-08-02T17:02:10.947Z,70.90
2022-08-02T17:04:39.230Z,71.20
2022-08-02T17:08:08.736Z,70.90
2022-08-02T17:10:09.100Z,70.90
2022-08-02T17:12:40.979Z,71.60
2022-08-02T17:16:07.539Z,71.20
2022-08-02T17:18:05.938Z,71.50
2022-08-02T17:20:40.155Z,71.20
2022-08-02T17:23:09.054Z,71.30
2022-08-02T17:29:14.185Z,71.60
2022-08-02T17:31:44.413Z,71.90
2022-08-02T17:34:17.045Z,71.80
2022-08-02T17:37:14.942Z,71.70
2022-08-02T17:39:44.225Z,71.60
2022-08-02T17:42:24.280Z,72.20
2022-08-02T17:45:16.679Z,72.70
2022-08-02T17:48:03.961Z,72.40
2022-08-02T17:50:37.784Z,72.50
2022-08-02T17:53:22.685Z,73.10
2022-08-02T17:56:07.525Z,73.20
2022-08-02T17:58:53.695Z,73.10
2022-08-02T18:01:23.995Z,73.50
2022-08-02T18:07:10.263Z,73.40
2022-08-02T18:09:43.684Z,74.40
2022-08-02T18:12:16.253Z,74.00
2022-08-02T18:15:14.502Z,75.30
2022-08-02T18:17:57.124Z,74.70
2022-08-02T18:20:42.185Z,74.60
2022-08-02T18:23:13.847Z,74.30
2022-08-02T18:25:46.934Z,74.60
2022-08-02T18:28:26.627Z,74.30
2022-08-02T18:31:15.118Z,75.10
2022-08-02T18:34:02.319Z,75.00
2022-08-02T18:36:47.132Z,75.90
2022-08-02T18:39:28.282Z,75.30
2022-08-02T18:42:13.298Z,76.30
2022-08-02T18:45:19.801Z,76.80
2022-08-02T18:48:05.025Z,76.80
2022-08-02T18:50:42.644Z,77.80
2022-08-02T18:53:39.338Z,78.00
2022-08-02T18:58:58.836Z,77.20
2022-08-02T19:01:35.093Z,77.10
2022-08-02T19:04:11.182Z,78.00
2022-08-02T19:06:53.679Z,79.30
2022-08-02T19:09:25.872Z,79.90
2022-08-02T19:12:02.439Z,79.70
2022-08-02T19:14:54.748Z,80.70
2022-08-02T19:17:55.025Z,81.00
2022-08-02T19:20:33.611Z,81.30
2022-08-02T19:23:08.862Z,81.50
2022-08-02T19:25:54.557Z,82.00
2022-08-02T19:28:43.127Z,82.50
2022-08-02T19:31:15.876Z,82.90
2022-08-02T19:34:07.504Z,83.50
2022-08-02T19:36:37.437Z,83.90
2022-08-02T19:39:16.750Z,84.30
2022-08-02T19:41:48.133Z,84.40
2022-08-02T19:44:30.633Z,84.60
2022-08-02T19:47:01.670Z,85.10
2022-08-02T19:49:40.179Z,85.60
2022-08-02T19:52:21.734Z,84.80
2022-08-02T19:55:59.313Z,85.60
2022-08-02T19:58:01.603Z,85.10
2022-08-02T20:00:40.050Z,86.40
2022-08-02T20:03:16.791Z,87.00
2022-08-02T20:05:55.133Z,87.00
2022-08-02T20:08:31.675Z,86.20
2022-08-02T20:11:23.395Z,87.50
2022-08-02T20:13:58.761Z,86.50
2022-08-02T20:16:32.625Z,88.10
2022-08-02T20:19:11.970Z,89.40
2022-08-02T20:21:52.881Z,89.50
2022-08-02T20:24:27.408Z,89.50
2022-08-02T20:27:03.248Z,90.00
2022-08-02T20:29:48.629Z,90.60
2022-08-02T20:32:29.322Z,90.50
2022-08-02T20:35:10.869Z,90.00
2022-08-02T20:38:04.604Z,90.50
2022-08-02T20:40:49.314Z,90.80
2022-08-02T20:43:20.347Z,91.00
2022-08-02T20:46:01.349Z,91.50
2022-08-02T20:48:35.012Z,91.90
2022-08-02T20:51:09.596Z,92.30
2022-08-02T20:53:56.496Z,92.20
2022-08-02T20:56:26.823Z,92.60
2022-08-02T20:59:03.706Z,92.50
2022-08-02T21:01:37.111Z,92.90
2022-08-02T21:04:06.548Z,93.00
2022-08-02T21:06:59.040Z,92.80
2022-08-02T21:09:52.581Z,93.50
2022-08-02T21:12:18.242Z,93.70
2022-08-02T21:14:53.228Z,93.40
2022-08-02T21:17:27.102Z,93.80
2022-08-02T21:20:13.876Z,94.20
2022-08-02T21:22:44.667Z,94.80
2022-08-02T21:25:15.715Z,95.30
2022-08-02T21:30:33.044Z,95.90
2022-08-02T21:33:03.168Z,95.90
2022-08-02T21:35:31.087Z,96.00
2022-08-02T21:37:59.758Z,96.30
2022-08-02T21:40:27.795Z,96.30
2022-08-02T21:42:56.749Z,96.50
2022-08-02T21:45:23.641Z,96.80
2022-08-02T21:47:50.804Z,97.30
2022-08-02T21:50:20.824Z,97.40
2022-08-02T21:56:00.903Z,97.70
2022-08-02T21:58:25.198Z,97.90
2022-08-02T22:00:53.033Z,98.60
2022-08-02T22:03:22.496Z,98.70
2022-08-02T22:05:52.900Z,98.70
2022-08-02T22:08:20.850Z,99.60
2022-08-02T22:11:16.966Z,99.90
2022-08-02T22:13:53.642Z,99.90
2022-08-02T22:16:22.599Z,99.90
2022-08-02T22:18:52.725Z,99.90
2022-08-02T22:21:22.849Z,99.90
2022-08-02T22:23:51.219Z,99.90
2022-08-02T22:26:19.763Z,99.90
2022-08-02T22:28:54.903Z,99.90
2022-08-02T22:31:40.983Z,99.90
2022-08-02T22:34:26.810Z,99.90
2022-08-02T22:37:06.002Z,99.90
2022-08-02T22:39:36.879Z,99.90
2022-08-02T22:42:23.689Z,99.90
2022-08-02T22:44:52.753Z,99.90
2022-08-02T22:47:21.505Z,99.90
2022-08-02T22:49:54.281Z,99.90
2022-08-02T22:52:27.301Z,99.90
2022-08-02T22:54:54.871Z,99.90
2022-08-02T22:57:30.307Z,99.90
2022-08-02T22:58:46.034Z,77.90
2022-08-02T22:58:51.126Z,71.70
2022-08-02T22:59:02.780Z,95.30
2022-08-02T22:59:12.045Z,97.50
2022-08-02T23:00:01.074Z,99.90
2022-08-02T23:02:28.150Z,99.90
2022-08-02T23:04:56.999Z,99.90
2022-08-02T23:07:26.984Z,99.90
2022-08-02T23:09:54.580Z,99.90
2022-08-02T23:12:22.047Z,99.90
2022-08-02T23:14:52.282Z,99.90
2022-08-02T23:17:38.912Z,99.90
2022-08-02T23:20:10.686Z,99.90
2022-08-02T23:22:40.336Z,99.90
2022-08-02T23:25:08.531Z,99.90
2022-08-02T23:27:38.543Z,99.90
2022-08-02T23:30:13.248Z,99.90
2022-08-02T23:32:56.442Z,99.90
2022-08-02T23:35:26.057Z,99.90
2022-08-02T23:37:58.997Z,99.90
2022-08-02T23:40:40.361Z,99.90
2022-08-02T23:43:13.501Z,99.90
2022-08-02T23:45:48.175Z,99.90
2022-08-02T23:48:15.316Z,99.90
2022-08-02T23:50:42.306Z,99.90
2022-08-02T23:53:09.243Z,99.90
2022-08-02T23:55:39.516Z,99.90
2022-08-02T23:58:09.362Z,99.90
